VOBL Airport Information

Runway Information
Runway 09 Length 13123 ft width 148 ft
Elevation 3001 ft Threshold 0 ft Heading 92
Runway 27 Length 13123 ft Width 148 ft
Elevation 2917 ft Threshold 0 ft Heading 272
Airport Frequencies
Type APP Name Frequency 121.25 MHZ
Type ATIS Name Frequency 128.675 MHZ
Type DELIVERY Name Frequency 121.82 MHZ
Type SMC Name Frequency 121.65 MHZ
Type TOWER Name Frequency 124.35 MHZ
Airport Navaids
Airport Weather Information & NOTAM
ADDS - METARS form results

(1557 UTC 07 May 2021)
Data provider http://aviationweather.gov/metar/data/
 
METAR text: VOBL 071530Z 14013KT 6000 FEW015 27/16 Q1015 NOSIG
Conditions at: VOBL (BENGALURU , IN) observed 1530 UTC 07 May 2021
Temperature: 27.0°C (81°F)
Dewpoint: 16.0°C (61°F) [RH = 51%]
Pressure (altimeter): 29.97 inches Hg (1015.0 mb)
Winds: from the SE (140 degrees) at 15 MPH (13 knots; 6.7 m/s)
Visibility: 4 miles ( 6 km)
Ceiling: at least 12,000 feet AGL
Clouds: few clouds at 1500 feet AGL
Weather: no significant weather observed at this time

METAR text: VOBL 071500Z 14010KT 6000 FEW015 FEW025CB 28/16 Q1015 NOSIG
Conditions at: VOBL (BENGALURU , IN) observed 1500 UTC 07 May 2021
Temperature: 28.0°C (82°F)
Dewpoint: 16.0°C (61°F) [RH = 48%]
Pressure (altimeter): 29.97 inches Hg (1015.0 mb)
Winds: from the SE (140 degrees) at 12 MPH (10 knots; 5.1 m/s)
Visibility: 4 miles ( 6 km)
Ceiling: at least 12,000 feet AGL
Clouds: few clouds at 1500 feet AGL
few clouds at 2500 feet AGL
Weather: no significant weather observed at this time

Forecast for: VOBL (BENGALURU , IN)
Text: TAF VOBL 071400Z 0715/0724 11005KT 6000 SCT015
Forecast period: 1500 UTC 07 May 2021 to 0000 UTC 08 May 2021
Forecast type: FROM: standard forecast or significant change
Winds: from the ESE (110 degrees) at 6 MPH (5 knots; 2.6 m/s)
Visibility: 4 miles (6 km)
Ceiling: at least 12,000 feet AGL
Clouds: scattered clouds at 1500 feet AGL
Weather: no significant weather forecast for this period
Text: TEMPO 0715/0718 SCT012 FEW025CB SCT080
Forecast period: 1500 to 1800 UTC 07 May 2021
Forecast type: TEMPORARY: The following changes expected for less than half the time period
Visibility: missing
Ceiling: at least 12,000 feet AGL
Clouds: scattered clouds at 1200 feet AGL
few clouds at 2500 feet AGL
scattered clouds at 8000 feet AGL
Weather: no significant weather forecast for this period